sensor_id;sensor_type;location;lat;lon;timestamp;temperature;humidity
12819;DHT22;6474;53.474;9.894;2024-03-02T00:00:49;8.60;91.50
12819;DHT22;6474;53.474;9.894;2024-03-02T00:03:18;8.60;91.50
12819;DHT22;6474;53.474;9.894;2024-03-02T00:05:50;8.60;91.50
12819;DHT22;6474;53.474;9.894;2024-03-02T00:08:25;8.60;91.50
12819;DHT22;6474;53.474;9.894;2024-03-02T00:10:58;8.60;91.50
12819;DHT22;6474;53.474;9.894;2024-03-02T00:13:27;8.60;91.50
12819;DHT22;6474;53.474;9.894;2024-03-02T00:15:58;8.60;91.50
12819;DHT22;6474;53.474;9.894;2024-03-02T00:18:30;8.60;91.50
12819;DHT22;6474;53.474;9.894;2024-03-02T00:20:58;8.60;91.50
12819;DHT22;6474;53.474;9.894;2024-03-02T00:23:29;8.60;91.50
12819;DHT22;6474;53.474;9.894;2024-03-02T00:25:59;8.60;91.60
12819;DHT22;6474;53.474;9.894;2024-03-02T00:28:29;8.60;91.60
12819;DHT22;6474;53.474;9.894;2024-03-02T00:31:03;8.50;91.50
12819;DHT22;6474;53.474;9.894;2024-03-02T00:33:32;8.60;91.60
12819;DHT22;6474;53.474;9.894;2024-03-02T00:36:01;8.60;91.60
12819;DHT22;6474;53.474;9.894;2024-03-02T00:38:30;8.60;91.50
12819;DHT22;6474;53.474;9.894;2024-03-02T00:41:03;8.60;91.50
12819;DHT22;6474;53.474;9.894;2024-03-02T00:43:47;8.60;91.50
12819;DHT22;6474;53.474;9.894;2024-03-02T00:46:19;8.60;91.50
12819;DHT22;6474;53.474;9.894;2024-03-02T00:48:57;8.60;91.50
12819;DHT22;6474;53.474;9.894;2024-03-02T00:51:27;8.60;91.50
12819;DHT22;6474;53.474;9.894;2024-03-02T00:53:59;8.60;91.50
12819;DHT22;6474;53.474;9.894;2024-03-02T00:56:29;8.60;91.50
12819;DHT22;6474;53.474;9.894;2024-03-02T00:58:57;8.60;91.50
12819;DHT22;6474;53.474;9.894;2024-03-02T01:01:25;8.60;91.50
12819;DHT22;6474;53.474;9.894;2024-03-02T01:03:53;8.60;91.50
12819;DHT22;6474;53.474;9.894;2024-03-02T01:06:21;8.60;91.50
12819;DHT22;6474;53.474;9.894;2024-03-02T01:08:49;8.50;91.40
12819;DHT22;6474;53.474;9.894;2024-03-02T01:11:19;8.60;91.50
12819;DHT22;6474;53.474;9.894;2024-03-02T01:13:50;8.60;91.50
12819;DHT22;6474;53.474;9.894;2024-03-02T01:16:19;8.50;91.50
12819;DHT22;6474;53.474;9.894;2024-03-02T01:18:46;8.60;91.50
12819;DHT22;6474;53.474;9.894;2024-03-02T01:21:15;8.50;91.50
12819;DHT22;6474;53.474;9.894;2024-03-02T01:23:43;8.60;91.50
12819;DHT22;6474;53.474;9.894;2024-03-02T01:26:11;8.50;91.40
12819;DHT22;6474;53.474;9.894;2024-03-02T01:28:38;8.50;91.40
12819;DHT22;6474;53.474;9.894;2024-03-02T01:31:08;8.50;91.40
12819;DHT22;6474;53.474;9.894;2024-03-02T01:33:35;8.50;91.40
12819;DHT22;6474;53.474;9.894;2024-03-02T01:36:04;8.50;91.40
12819;DHT22;6474;53.474;9.894;2024-03-02T01:38:32;8.50;91.40
12819;DHT22;6474;53.474;9.894;2024-03-02T01:41:00;8.50;91.40
12819;DHT22;6474;53.474;9.894;2024-03-02T01:43:29;8.40;91.40
12819;DHT22;6474;53.474;9.894;2024-03-02T01:45:56;8.50;91.80
12819;DHT22;6474;53.474;9.894;2024-03-02T01:48:26;8.40;91.40
12819;DHT22;6474;53.474;9.894;2024-03-02T01:50:54;8.40;91.40
12819;DHT22;6474;53.474;9.894;2024-03-02T01:53:22;8.40;91.40
12819;DHT22;6474;53.474;9.894;2024-03-02T01:55:50;8.40;91.40
12819;DHT22;6474;53.474;9.894;2024-03-02T01:58:18;8.40;91.40
12819;DHT22;6474;53.474;9.894;2024-03-02T02:00:46;8.40;91.40
12819;DHT22;6474;53.474;9.894;2024-03-02T02:03:15;8.30;91.40
12819;DHT22;6474;53.474;9.894;2024-03-02T02:05:44;8.40;91.40
12819;DHT22;6474;53.474;9.894;2024-03-02T02:08:12;8.30;91.40
12819;DHT22;6474;53.474;9.894;2024-03-02T02:10:40;8.30;91.40
12819;DHT22;6474;53.474;9.894;2024-03-02T02:13:08;8.30;91.40
12819;DHT22;6474;53.474;9.894;2024-03-02T02:15:36;8.30;91.50
12819;DHT22;6474;53.474;9.894;2024-03-02T02:18:05;8.30;91.50
12819;DHT22;6474;53.474;9.894;2024-03-02T02:20:33;8.30;91.50
12819;DHT22;6474;53.474;9.894;2024-03-02T02:23:03;8.30;91.50
12819;DHT22;6474;53.474;9.894;2024-03-02T02:25:32;8.30;91.50
12819;DHT22;6474;53.474;9.894;2024-03-02T02:28:00;8.30;91.50
12819;DHT22;6474;53.474;9.894;2024-03-02T02:30:31;8.30;91.50
12819;DHT22;6474;53.474;9.894;2024-03-02T02:32:59;8.30;91.50
12819;DHT22;6474;53.474;9.894;2024-03-02T02:35:27;8.30;91.50
12819;DHT22;6474;53.474;9.894;2024-03-02T02:37:57;8.30;91.50
12819;DHT22;6474;53.474;9.894;2024-03-02T02:40:27;8.20;91.40
12819;DHT22;6474;53.474;9.894;2024-03-02T02:42:56;8.20;91.50
12819;DHT22;6474;53.474;9.894;2024-03-02T02:45:24;8.20;91.50
12819;DHT22;6474;53.474;9.894;2024-03-02T02:47:51;8.20;91.50
12819;DHT22;6474;53.474;9.894;2024-03-02T02:50:18;8.20;91.50
12819;DHT22;6474;53.474;9.894;2024-03-02T02:52:46;8.20;91.50
12819;DHT22;6474;53.474;9.894;2024-03-02T02:55:14;8.20;91.50
12819;DHT22;6474;53.474;9.894;2024-03-02T02:57:44;8.20;91.50
12819;DHT22;6474;53.474;9.894;2024-03-02T03:00:14;8.20;91.50
12819;DHT22;6474;53.474;9.894;2024-03-02T03:02:47;8.20;91.50
12819;DHT22;6474;53.474;9.894;2024-03-02T03:05:17;8.20;91.50
12819;DHT22;6474;53.474;9.894;2024-03-02T03:07:45;8.20;91.50
12819;DHT22;6474;53.474;9.894;2024-03-02T03:10:17;8.20;91.50
12819;DHT22;6474;53.474;9.894;2024-03-02T03:12:46;8.10;91.50
12819;DHT22;6474;53.474;9.894;2024-03-02T03:15:14;8.10;91.50
12819;DHT22;6474;53.474;9.894;2024-03-02T03:17:43;8.20;91.50
12819;DHT22;6474;53.474;9.894;2024-03-02T03:20:11;8.10;91.50
12819;DHT22;6474;53.474;9.894;2024-03-02T03:22:40;8.20;91.50
12819;DHT22;6474;53.474;9.894;2024-03-02T03:25:08;8.10;91.50
12819;DHT22;6474;53.474;9.894;2024-03-02T03:27:36;8.20;91.50
12819;DHT22;6474;53.474;9.894;2024-03-02T03:30:06;8.20;91.50
12819;DHT22;6474;53.474;9.894;2024-03-02T03:32:35;8.10;91.50
12819;DHT22;6474;53.474;9.894;2024-03-02T03:35:03;8.10;91.50
12819;DHT22;6474;53.474;9.894;2024-03-02T03:37:32;8.10;91.50
12819;DHT22;6474;53.474;9.894;2024-03-02T03:40:01;8.10;91.50
12819;DHT22;6474;53.474;9.894;2024-03-02T03:42:33;8.10;91.50
12819;DHT22;6474;53.474;9.894;2024-03-02T03:45:01;8.10;91.50
12819;DHT22;6474;53.474;9.894;2024-03-02T03:47:31;8.10;91.50
12819;DHT22;6474;53.474;9.894;2024-03-02T03:49:59;8.10;91.50
12819;DHT22;6474;53.474;9.894;2024-03-02T03:52:26;8.10;91.50
12819;DHT22;6474;53.474;9.894;2024-03-02T03:54:54;8.10;91.50
12819;DHT22;6474;53.474;9.894;2024-03-02T03:57:22;8.10;91.50
12819;DHT22;6474;53.474;9.894;2024-03-02T03:59:50;8.10;91.60
12819;DHT22;6474;53.474;9.894;2024-03-02T04:02:18;8.10;91.60
12819;DHT22;6474;53.474;9.894;2024-03-02T04:04:47;8.10;91.60
12819;DHT22;6474;53.474;9.894;2024-03-02T04:07:15;8.10;91.60
12819;DHT22;6474;53.474;9.894;2024-03-02T04:09:43;8.10;91.60
12819;DHT22;6474;53.474;9.894;2024-03-02T04:12:11;8.00;91.50
12819;DHT22;6474;53.474;9.894;2024-03-02T04:14:39;8.00;91.50
12819;DHT22;6474;53.474;9.894;2024-03-02T04:17:09;8.00;91.60
12819;DHT22;6474;53.474;9.894;2024-03-02T04:19:37;8.00;91.60
12819;DHT22;6474;53.474;9.894;2024-03-02T04:22:06;8.00;91.60
12819;DHT22;6474;53.474;9.894;2024-03-02T04:24:46;8.00;91.60
12819;DHT22;6474;53.474;9.894;2024-03-02T04:27:14;8.00;91.60
12819;DHT22;6474;53.474;9.894;2024-03-02T04:29:42;8.00;91.60
12819;DHT22;6474;53.474;9.894;2024-03-02T04:32:10;8.00;91.60
12819;DHT22;6474;53.474;9.894;2024-03-02T04:34:38;8.00;91.60
12819;DHT22;6474;53.474;9.894;2024-03-02T04:37:07;8.00;91.60
12819;DHT22;6474;53.474;9.894;2024-03-02T04:39:35;8.00;91.60
12819;DHT22;6474;53.474;9.894;2024-03-02T04:42:03;8.00;91.60
12819;DHT22;6474;53.474;9.894;2024-03-02T04:44:31;8.00;91.60
12819;DHT22;6474;53.474;9.894;2024-03-02T04:46:58;8.00;91.60
12819;DHT22;6474;53.474;9.894;2024-03-02T04:49:26;8.00;91.60
12819;DHT22;6474;53.474;9.894;2024-03-02T04:51:54;8.00;91.60
12819;DHT22;6474;53.474;9.894;2024-03-02T04:54:25;8.00;91.60
12819;DHT22;6474;53.474;9.894;2024-03-02T04:56:52;8.00;91.60
12819;DHT22;6474;53.474;9.894;2024-03-02T04:59:20;8.00;91.60
12819;DHT22;6474;53.474;9.894;2024-03-02T05:01:48;8.00;91.60
12819;DHT22;6474;53.474;9.894;2024-03-02T05:04:16;8.00;91.60
12819;DHT22;6474;53.474;9.894;2024-03-02T05:06:44;8.00;91.60
12819;DHT22;6474;53.474;9.894;2024-03-02T05:09:18;8.00;91.60
12819;DHT22;6474;53.474;9.894;2024-03-02T05:11:48;8.00;91.60
12819;DHT22;6474;53.474;9.894;2024-03-02T05:14:49;8.00;91.60
12819;DHT22;6474;53.474;9.894;2024-03-02T05:17:17;8.00;91.60
12819;DHT22;6474;53.474;9.894;2024-03-02T05:19:45;8.00;91.60
12819;DHT22;6474;53.474;9.894;2024-03-02T05:22:13;8.00;91.60
12819;DHT22;6474;53.474;9.894;2024-03-02T05:24:40;8.00;91.60
12819;DHT22;6474;53.474;9.894;2024-03-02T05:27:10;8.00;91.60
12819;DHT22;6474;53.474;9.894;2024-03-02T05:29:38;8.00;91.60
12819;DHT22;6474;53.474;9.894;2024-03-02T05:32:06;8.00;91.60
12819;DHT22;6474;53.474;9.894;2024-03-02T05:34:34;8.00;91.60
12819;DHT22;6474;53.474;9.894;2024-03-02T05:37:02;8.00;91.60
12819;DHT22;6474;53.474;9.894;2024-03-02T05:39:30;8.00;91.60
12819;DHT22;6474;53.474;9.894;2024-03-02T05:41:58;8.00;91.50
12819;DHT22;6474;53.474;9.894;2024-03-02T05:44:27;8.00;91.50
12819;DHT22;6474;53.474;9.894;2024-03-02T05:46:56;8.00;91.60
12819;DHT22;6474;53.474;9.894;2024-03-02T05:49:24;8.00;91.60
12819;DHT22;6474;53.474;9.894;2024-03-02T05:51:51;8.00;91.60
12819;DHT22;6474;53.474;9.894;2024-03-02T05:54:20;8.00;91.60
12819;DHT22;6474;53.474;9.894;2024-03-02T05:56:48;8.00;91.90
12819;DHT22;6474;53.474;9.894;2024-03-02T05:59:15;8.00;91.60
12819;DHT22;6474;53.474;9.894;2024-03-02T06:01:46;7.90;91.60
12819;DHT22;6474;53.474;9.894;2024-03-02T06:04:14;8.00;91.60
12819;DHT22;6474;53.474;9.894;2024-03-02T06:06:43;7.90;91.60
12819;DHT22;6474;53.474;9.894;2024-03-02T06:09:11;7.90;91.60
12819;DHT22;6474;53.474;9.894;2024-03-02T06:11:40;7.90;91.60
12819;DHT22;6474;53.474;9.894;2024-03-02T06:14:09;7.90;91.60
12819;DHT22;6474;53.474;9.894;2024-03-02T06:16:36;7.90;91.60
12819;DHT22;6474;53.474;9.894;2024-03-02T06:19:05;7.90;91.60
12819;DHT22;6474;53.474;9.894;2024-03-02T06:21:33;7.80;91.60
12819;DHT22;6474;53.474;9.894;2024-03-02T06:24:01;7.80;91.60
12819;DHT22;6474;53.474;9.894;2024-03-02T06:26:29;7.80;91.60
12819;DHT22;6474;53.474;9.894;2024-03-02T06:28:58;7.80;91.60
12819;DHT22;6474;53.474;9.894;2024-03-02T06:31:26;7.80;91.60
12819;DHT22;6474;53.474;9.894;2024-03-02T06:33:54;7.80;91.60
12819;DHT22;6474;53.474;9.894;2024-03-02T06:36:23;7.70;91.60
12819;DHT22;6474;53.474;9.894;2024-03-02T06:38:51;7.70;91.60
12819;DHT22;6474;53.474;9.894;2024-03-02T06:41:19;7.70;91.60
12819;DHT22;6474;53.474;9.894;2024-03-02T06:43:46;7.70;91.60
12819;DHT22;6474;53.474;9.894;2024-03-02T06:46:14;7.70;91.60
12819;DHT22;6474;53.474;9.894;2024-03-02T06:48:42;7.70;91.60
12819;DHT22;6474;53.474;9.894;2024-03-02T06:51:10;7.70;91.60
12819;DHT22;6474;53.474;9.894;2024-03-02T06:53:39;7.70;91.60
12819;DHT22;6474;53.474;9.894;2024-03-02T06:56:07;7.70;91.60
12819;DHT22;6474;53.474;9.894;2024-03-02T06:58:35;7.70;91.60
12819;DHT22;6474;53.474;9.894;2024-03-02T07:01:03;7.80;91.60
12819;DHT22;6474;53.474;9.894;2024-03-02T07:03:31;7.80;91.60
12819;DHT22;6474;53.474;9.894;2024-03-02T07:06:00;7.90;91.60
12819;DHT22;6474;53.474;9.894;2024-03-02T07:08:27;7.90;91.60
12819;DHT22;6474;53.474;9.894;2024-03-02T07:10:57;7.90;91.60
12819;DHT22;6474;53.474;9.894;2024-03-02T07:13:25;8.00;91.60
12819;DHT22;6474;53.474;9.894;2024-03-02T07:15:52;8.00;91.60
12819;DHT22;6474;53.474;9.894;2024-03-02T07:18:49;8.00;91.60
12819;DHT22;6474;53.474;9.894;2024-03-02T07:21:19;8.10;91.60
12819;DHT22;6474;53.474;9.894;2024-03-02T07:23:49;8.10;91.60
12819;DHT22;6474;53.474;9.894;2024-03-02T07:26:18;8.20;91.60
12819;DHT22;6474;53.474;9.894;2024-03-02T07:28:49;8.20;91.60
12819;DHT22;6474;53.474;9.894;2024-03-02T07:31:18;8.20;91.50
12819;DHT22;6474;53.474;9.894;2024-03-02T07:33:46;8.30;91.60
12819;DHT22;6474;53.474;9.894;2024-03-02T07:36:14;8.30;91.60
12819;DHT22;6474;53.474;9.894;2024-03-02T07:38:42;8.40;91.60
12819;DHT22;6474;53.474;9.894;2024-03-02T07:41:11;8.40;91.60
12819;DHT22;6474;53.474;9.894;2024-03-02T07:43:41;8.40;91.60
12819;DHT22;6474;53.474;9.894;2024-03-02T07:46:08;8.40;91.50
12819;DHT22;6474;53.474;9.894;2024-03-02T07:48:36;8.40;91.50
12819;DHT22;6474;53.474;9.894;2024-03-02T07:51:04;8.40;91.50
12819;DHT22;6474;53.474;9.894;2024-03-02T07:53:32;8.40;91.40
12819;DHT22;6474;53.474;9.894;2024-03-02T07:56:00;8.50;91.50
12819;DHT22;6474;53.474;9.894;2024-03-02T07:58:29;8.50;91.40
12819;DHT22;6474;53.474;9.894;2024-03-02T08:00:59;8.50;91.40
12819;DHT22;6474;53.474;9.894;2024-03-02T08:03:28;8.50;91.40
12819;DHT22;6474;53.474;9.894;2024-03-02T08:05:56;8.50;91.50
12819;DHT22;6474;53.474;9.894;2024-03-02T08:08:24;8.50;91.40
12819;DHT22;6474;53.474;9.894;2024-03-02T08:10:52;8.60;91.50
12819;DHT22;6474;53.474;9.894;2024-03-02T08:13:20;8.60;91.50
12819;DHT22;6474;53.474;9.894;2024-03-02T08:15:48;8.60;91.50
12819;DHT22;6474;53.474;9.894;2024-03-02T08:18:18;8.60;91.50
12819;DHT22;6474;53.474;9.894;2024-03-02T08:20:46;8.60;91.50
12819;DHT22;6474;53.474;9.894;2024-03-02T08:23:14;8.60;91.50
12819;DHT22;6474;53.474;9.894;2024-03-02T08:25:42;8.70;91.50
12819;DHT22;6474;53.474;9.894;2024-03-02T08:28:10;8.70;91.50
12819;DHT22;6474;53.474;9.894;2024-03-02T08:30:38;8.70;91.50
12819;DHT22;6474;53.474;9.894;2024-03-02T08:33:06;8.70;91.50
12819;DHT22;6474;53.474;9.894;2024-03-02T08:35:36;8.70;91.50
12819;DHT22;6474;53.474;9.894;2024-03-02T08:38:04;8.70;91.50
12819;DHT22;6474;53.474;9.894;2024-03-02T08:40:32;8.80;91.60
12819;DHT22;6474;53.474;9.894;2024-03-02T08:43:00;8.90;91.60
12819;DHT22;6474;53.474;9.894;2024-03-02T08:45:28;8.90;91.60
12819;DHT22;6474;53.474;9.894;2024-03-02T08:47:55;8.90;91.60
12819;DHT22;6474;53.474;9.894;2024-03-02T08:50:23;9.00;91.70
12819;DHT22;6474;53.474;9.894;2024-03-02T08:52:52;9.10;91.70
12819;DHT22;6474;53.474;9.894;2024-03-02T08:55:20;9.20;91.70
12819;DHT22;6474;53.474;9.894;2024-03-02T08:57:48;9.20;91.70
12819;DHT22;6474;53.474;9.894;2024-03-02T09:00:17;9.30;91.80
12819;DHT22;6474;53.474;9.894;2024-03-02T09:02:46;9.40;91.80
12819;DHT22;6474;53.474;9.894;2024-03-02T09:05:14;9.50;91.80
12819;DHT22;6474;53.474;9.894;2024-03-02T09:07:41;9.60;91.70
12819;DHT22;6474;53.474;9.894;2024-03-02T09:10:11;9.70;91.80
12819;DHT22;6474;53.474;9.894;2024-03-02T09:12:39;9.80;91.70
12819;DHT22;6474;53.474;9.894;2024-03-02T09:15:08;9.80;91.50
12819;DHT22;6474;53.474;9.894;2024-03-02T09:17:35;9.90;91.50
12819;DHT22;6474;53.474;9.894;2024-03-02T09:20:04;9.90;91.50
12819;DHT22;6474;53.474;9.894;2024-03-02T09:22:32;9.90;91.50
12819;DHT22;6474;53.474;9.894;2024-03-02T09:25:00;9.90;91.50
12819;DHT22;6474;53.474;9.894;2024-03-02T09:27:29;10.00;91.00
12819;DHT22;6474;53.474;9.894;2024-03-02T09:29:57;10.00;91.00
12819;DHT22;6474;53.474;9.894;2024-03-02T09:32:25;10.00;91.00
12819;DHT22;6474;53.474;9.894;2024-03-02T09:34:53;10.10;91.10
12819;DHT22;6474;53.474;9.894;2024-03-02T09:37:22;10.20;91.10
12819;DHT22;6474;53.474;9.894;2024-03-02T09:39:50;10.20;91.10
12819;DHT22;6474;53.474;9.894;2024-03-02T09:42:19;10.30;91.20
12819;DHT22;6474;53.474;9.894;2024-03-02T09:44:51;10.30;91.20
12819;DHT22;6474;53.474;9.894;2024-03-02T09:47:19;10.40;91.30
12819;DHT22;6474;53.474;9.894;2024-03-02T09:49:47;10.40;91.20
12819;DHT22;6474;53.474;9.894;2024-03-02T09:52:16;10.40;91.20
12819;DHT22;6474;53.474;9.894;2024-03-02T09:54:44;10.50;91.30
12819;DHT22;6474;53.474;9.894;2024-03-02T09:57:12;10.50;91.30
12819;DHT22;6474;53.474;9.894;2024-03-02T09:59:40;10.60;91.30
12819;DHT22;6474;53.474;9.894;2024-03-02T10:02:09;10.60;91.30
12819;DHT22;6474;53.474;9.894;2024-03-02T10:04:37;10.70;91.40
12819;DHT22;6474;53.474;9.894;2024-03-02T10:07:12;10.70;91.40
12819;DHT22;6474;53.474;9.894;2024-03-02T10:09:41;10.80;91.50
12819;DHT22;6474;53.474;9.894;2024-03-02T10:12:10;10.90;91.50
12819;DHT22;6474;53.474;9.894;2024-03-02T10:14:39;10.90;91.50
12819;DHT22;6474;53.474;9.894;2024-03-02T10:17:09;11.00;91.40
12819;DHT22;6474;53.474;9.894;2024-03-02T10:19:38;11.00;91.40
12819;DHT22;6474;53.474;9.894;2024-03-02T10:22:07;11.10;91.40
12819;DHT22;6474;53.474;9.894;2024-03-02T10:24:37;11.10;91.40
12819;DHT22;6474;53.474;9.894;2024-03-02T10:27:09;11.20;91.40
12819;DHT22;6474;53.474;9.894;2024-03-02T10:29:38;11.20;91.40
12819;DHT22;6474;53.474;9.894;2024-03-02T10:32:10;11.20;91.40
12819;DHT22;6474;53.474;9.894;2024-03-02T10:34:40;11.30;91.40
12819;DHT22;6474;53.474;9.894;2024-03-02T10:37:10;11.30;91.40
12819;DHT22;6474;53.474;9.894;2024-03-02T10:39:38;11.30;91.40
12819;DHT22;6474;53.474;9.894;2024-03-02T10:42:08;11.40;91.40
12819;DHT22;6474;53.474;9.894;2024-03-02T10:44:36;11.40;91.40
12819;DHT22;6474;53.474;9.894;2024-03-02T10:47:05;11.50;91.50
12819;DHT22;6474;53.474;9.894;2024-03-02T10:49:34;11.50;91.50
12819;DHT22;6474;53.474;9.894;2024-03-02T10:52:02;11.60;91.50
12819;DHT22;6474;53.474;9.894;2024-03-02T10:54:30;11.60;91.50
12819;DHT22;6474;53.474;9.894;2024-03-02T10:57:04;11.70;91.50
12819;DHT22;6474;53.474;9.894;2024-03-02T10:59:37;11.80;91.60
12819;DHT22;6474;53.474;9.894;2024-03-02T11:02:12;11.80;91.50
12819;DHT22;6474;53.474;9.894;2024-03-02T11:04:42;11.90;91.60
12819;DHT22;6474;53.474;9.894;2024-03-02T11:07:10;12.00;91.60
12819;DHT22;6474;53.474;9.894;2024-03-02T11:09:41;12.00;91.60
12819;DHT22;6474;53.474;9.894;2024-03-02T11:12:13;12.10;91.70
12819;DHT22;6474;53.474;9.894;2024-03-02T11:14:41;12.10;91.70
12819;DHT22;6474;53.474;9.894;2024-03-02T11:17:11;12.10;91.70
12819;DHT22;6474;53.474;9.894;2024-03-02T11:19:44;12.20;91.70
12819;DHT22;6474;53.474;9.894;2024-03-02T11:22:15;12.20;91.70
12819;DHT22;6474;53.474;9.894;2024-03-02T11:24:48;12.30;91.70
12819;DHT22;6474;53.474;9.894;2024-03-02T11:30:51;12.30;91.70
12819;DHT22;6474;53.474;9.894;2024-03-02T11:33:24;12.30;91.70
12819;DHT22;6474;53.474;9.894;2024-03-02T11:35:56;12.30;91.70
12819;DHT22;6474;53.474;9.894;2024-03-02T11:38:31;12.40;91.80
12819;DHT22;6474;53.474;9.894;2024-03-02T11:41:01;12.40;91.80
12819;DHT22;6474;53.474;9.894;2024-03-02T11:43:29;12.40;91.80
12819;DHT22;6474;53.474;9.894;2024-03-02T11:45:58;12.40;91.80
12819;DHT22;6474;53.474;9.894;2024-03-02T11:48:26;12.50;91.80
12819;DHT22;6474;53.474;9.894;2024-03-02T11:50:58;12.50;91.70
12819;DHT22;6474;53.474;9.894;2024-03-02T11:53:27;12.50;91.70
12819;DHT22;6474;53.474;9.894;2024-03-02T11:55:59;12.50;91.70
12819;DHT22;6474;53.474;9.894;2024-03-02T11:58:28;12.50;91.80
12819;DHT22;6474;53.474;9.894;2024-03-02T12:00:57;12.50;91.70
12819;DHT22;6474;53.474;9.894;2024-03-02T12:03:25;12.50;91.70
12819;DHT22;6474;53.474;9.894;2024-03-02T12:05:55;12.50;91.70
12819;DHT22;6474;53.474;9.894;2024-03-02T12:08:23;12.60;91.80
12819;DHT22;6474;53.474;9.894;2024-03-02T12:10:59;12.60;91.80
12819;DHT22;6474;53.474;9.894;2024-03-02T12:13:27;12.60;91.70
12819;DHT22;6474;53.474;9.894;2024-03-02T12:15:56;12.60;91.70
12819;DHT22;6474;53.474;9.894;2024-03-02T12:18:24;12.70;91.70
12819;DHT22;6474;53.474;9.894;2024-03-02T12:20:53;12.70;91.70
12819;DHT22;6474;53.474;9.894;2024-03-02T12:23:25;12.70;91.70
12819;DHT22;6474;53.474;9.894;2024-03-02T12:25:53;12.70;91.70
12819;DHT22;6474;53.474;9.894;2024-03-02T12:28:21;12.70;91.70
12819;DHT22;6474;53.474;9.894;2024-03-02T12:30:49;12.70;91.70
12819;DHT22;6474;53.474;9.894;2024-03-02T12:33:18;12.70;91.70
12819;DHT22;6474;53.474;9.894;2024-03-02T12:35:46;12.80;91.70
12819;DHT22;6474;53.474;9.894;2024-03-02T12:38:14;12.70;91.60
12819;DHT22;6474;53.474;9.894;2024-03-02T12:40:43;12.70;91.60
12819;DHT22;6474;53.474;9.894;2024-03-02T12:43:11;12.70;91.60
12819;DHT22;6474;53.474;9.894;2024-03-02T12:45:39;12.70;91.60
12819;DHT22;6474;53.474;9.894;2024-03-02T12:48:07;12.70;91.60
12819;DHT22;6474;53.474;9.894;2024-03-02T12:50:37;12.70;91.60
12819;DHT22;6474;53.474;9.894;2024-03-02T12:53:05;12.70;91.60
12819;DHT22;6474;53.474;9.894;2024-03-02T12:55:35;12.60;91.60
12819;DHT22;6474;53.474;9.894;2024-03-02T12:58:04;12.70;91.60
12819;DHT22;6474;53.474;9.894;2024-03-02T13:00:32;12.70;91.60
12819;DHT22;6474;53.474;9.894;2024-03-02T13:03:02;12.70;91.50
12819;DHT22;6474;53.474;9.894;2024-03-02T13:05:30;12.70;91.90
12819;DHT22;6474;53.474;9.894;2024-03-02T13:07:59;12.70;91.50
12819;DHT22;6474;53.474;9.894;2024-03-02T13:10:27;12.70;91.50
12819;DHT22;6474;53.474;9.894;2024-03-02T13:12:56;12.70;91.50
12819;DHT22;6474;53.474;9.894;2024-03-02T13:15:26;12.70;91.50
12819;DHT22;6474;53.474;9.894;2024-03-02T13:17:58;12.70;91.50
12819;DHT22;6474;53.474;9.894;2024-03-02T13:20:30;12.80;91.50
12819;DHT22;6474;53.474;9.894;2024-03-02T13:22:58;12.70;91.50
12819;DHT22;6474;53.474;9.894;2024-03-02T13:25:26;12.80;91.50
12819;DHT22;6474;53.474;9.894;2024-03-02T13:27:56;12.90;91.60
12819;DHT22;6474;53.474;9.894;2024-03-02T13:30:26;12.90;91.50
12819;DHT22;6474;53.474;9.894;2024-03-02T13:32:54;12.90;91.50
12819;DHT22;6474;53.474;9.894;2024-03-02T13:35:22;13.00;91.50
12819;DHT22;6474;53.474;9.894;2024-03-02T13:37:50;13.00;91.50
12819;DHT22;6474;53.474;9.894;2024-03-02T13:40:18;13.00;91.40
12819;DHT22;6474;53.474;9.894;2024-03-02T13:42:47;13.10;91.40
12819;DHT22;6474;53.474;9.894;2024-03-02T13:45:15;13.10;91.40
12819;DHT22;6474;53.474;9.894;2024-03-02T13:47:45;13.10;91.40
12819;DHT22;6474;53.474;9.894;2024-03-02T13:50:13;13.10;91.30
12819;DHT22;6474;53.474;9.894;2024-03-02T13:52:41;13.20;91.30
12819;DHT22;6474;53.474;9.894;2024-03-02T13:55:08;13.20;91.30
12819;DHT22;6474;53.474;9.894;2024-03-02T13:57:37;13.20;91.30
12819;DHT22;6474;53.474;9.894;2024-03-02T14:00:06;13.20;91.30
12819;DHT22;6474;53.474;9.894;2024-03-02T14:02:37;13.20;91.30
12819;DHT22;6474;53.474;9.894;2024-03-02T14:05:06;13.20;91.30
12819;DHT22;6474;53.474;9.894;2024-03-02T14:07:37;13.20;91.20
12819;DHT22;6474;53.474;9.894;2024-03-02T14:10:08;13.20;91.20
12819;DHT22;6474;53.474;9.894;2024-03-02T14:12:37;13.20;91.50
12819;DHT22;6474;53.474;9.894;2024-03-02T14:15:10;13.20;91.20
12819;DHT22;6474;53.474;9.894;2024-03-02T14:17:38;13.20;91.10
12819;DHT22;6474;53.474;9.894;2024-03-02T14:20:08;13.10;91.10
12819;DHT22;6474;53.474;9.894;2024-03-02T14:22:39;13.10;91.10
12819;DHT22;6474;53.474;9.894;2024-03-02T14:25:08;13.10;91.10
12819;DHT22;6474;53.474;9.894;2024-03-02T14:27:36;13.10;91.10
12819;DHT22;6474;53.474;9.894;2024-03-02T14:30:24;13.00;91.10
12819;DHT22;6474;53.474;9.894;2024-03-02T14:32:52;13.00;91.10
12819;DHT22;6474;53.474;9.894;2024-03-02T14:35:21;13.00;91.10
12819;DHT22;6474;53.474;9.894;2024-03-02T14:37:49;12.90;91.00
12819;DHT22;6474;53.474;9.894;2024-03-02T14:40:17;12.90;91.10
12819;DHT22;6474;53.474;9.894;2024-03-02T14:42:46;12.90;91.10
12819;DHT22;6474;53.474;9.894;2024-03-02T14:45:15;12.80;91.00
12819;DHT22;6474;53.474;9.894;2024-03-02T14:47:43;12.80;91.00
12819;DHT22;6474;53.474;9.894;2024-03-02T14:50:11;12.80;91.00
12819;DHT22;6474;53.474;9.894;2024-03-02T14:52:40;12.80;91.00
12819;DHT22;6474;53.474;9.894;2024-03-02T14:55:11;12.80;91.00
12819;DHT22;6474;53.474;9.894;2024-03-02T14:57:39;12.70;91.00
12819;DHT22;6474;53.474;9.894;2024-03-02T15:00:08;12.70;90.90
12819;DHT22;6474;53.474;9.894;2024-03-02T15:02:38;12.70;90.90
12819;DHT22;6474;53.474;9.894;2024-03-02T15:05:07;12.70;90.90
12819;DHT22;6474;53.474;9.894;2024-03-02T15:07:35;12.60;90.80
12819;DHT22;6474;53.474;9.894;2024-03-02T15:10:05;12.60;90.70
12819;DHT22;6474;53.474;9.894;2024-03-02T15:12:33;12.60;90.80
12819;DHT22;6474;53.474;9.894;2024-03-02T15:15:01;12.50;90.70
12819;DHT22;6474;53.474;9.894;2024-03-02T15:17:30;12.50;90.70
12819;DHT22;6474;53.474;9.894;2024-03-02T15:19:58;12.50;90.60
12819;DHT22;6474;53.474;9.894;2024-03-02T15:22:26;12.50;90.60
12819;DHT22;6474;53.474;9.894;2024-03-02T15:24:53;12.50;90.60
12819;DHT22;6474;53.474;9.894;2024-03-02T15:27:23;12.40;90.50
12819;DHT22;6474;53.474;9.894;2024-03-02T15:29:51;12.40;90.50
12819;DHT22;6474;53.474;9.894;2024-03-02T15:32:20;12.30;90.50
12819;DHT22;6474;53.474;9.894;2024-03-02T15:34:47;12.20;90.40
12819;DHT22;6474;53.474;9.894;2024-03-02T15:37:15;12.20;90.50
12819;DHT22;6474;53.474;9.894;2024-03-02T15:39:44;12.20;90.50
12819;DHT22;6474;53.474;9.894;2024-03-02T15:42:12;12.10;90.40
12819;DHT22;6474;53.474;9.894;2024-03-02T15:44:41;12.10;90.40
12819;DHT22;6474;53.474;9.894;2024-03-02T15:47:11;12.10;90.40
12819;DHT22;6474;53.474;9.894;2024-03-02T15:49:38;12.00;90.40
12819;DHT22;6474;53.474;9.894;2024-03-02T15:52:06;12.00;90.40
12819;DHT22;6474;53.474;9.894;2024-03-02T15:54:35;12.00;90.50
12819;DHT22;6474;53.474;9.894;2024-03-02T15:57:03;11.90;90.50
12819;DHT22;6474;53.474;9.894;2024-03-02T15:59:31;11.90;90.50
12819;DHT22;6474;53.474;9.894;2024-03-02T16:02:00;11.80;90.50
12819;DHT22;6474;53.474;9.894;2024-03-02T16:04:28;11.80;90.50
12819;DHT22;6474;53.474;9.894;2024-03-02T16:06:56;11.80;90.50
12819;DHT22;6474;53.474;9.894;2024-03-02T16:09:24;11.80;90.50